Time;durP1;ratioP1;P1;durP2;ratioP2;P2;SDS_P1;SDS_P2;PMS_P1;PMS_P2;Temp;Humidity;BMP_temperature;BMP_pressure;BME280_temperature;BME280_humidity;BME280_pressure;Samples;Min_cycle;Max_cycle;Signal;HPM_P1;HPM_P2
2023/09/02 00:02:11;;;;;;;;;;;;;;;;;;5035546;28;19913;-73
2023/09/02 00:04:37;;;;;;;;;;;;;;;;;;5037136;28;19916;-73
2023/09/02 00:07:03;;;;;;;;;;;;;;;;;;5031863;28;20411;-73
2023/09/02 00:09:29;;;;;;;;;;;;;;;;;;5037406;28;19951;-74
2023/09/02 00:11:55;;;;;;;;;;;;;;;;;;5033869;28;20062;-73
2023/09/02 00:14:21;;;;;;;;;;;;;;;;;;5031869;28;19905;-73
2023/09/02 00:16:47;;;;;;;;;;;;;;;;;;5031812;28;19905;-73
2023/09/02 00:19:13;;;;;;;;;;;;;;;;;;5013867;28;19915;-74
2023/09/02 00:21:39;;;;;;;;;;;;;;;;;;5031965;28;19909;-73
2023/09/02 00:24:05;;;;;;;;;;;;;;;;;;5031785;28;19905;-73
2023/09/02 00:26:31;;;;;;;;;;;;;;;;;;5032078;28;19905;-73
2023/09/02 00:28:57;;;;;;;;;;;;;;;;;;5031522;28;19909;-73
2023/09/02 00:31:23;;;;;;;;;;;;;;;;;;5031707;28;19916;-73
2023/09/02 00:33:49;;;;;;;;;;;;;;;;;;5013824;28;19909;-72
2023/09/02 00:36:15;;;;;;;;;;;;;;;;;;5013750;28;20438;-73
2023/09/02 00:38:41;;;;;;;;;;;;;;;;;;5030953;28;19912;-73
2023/09/02 00:41:07;;;;;;;;;;;;;;;;;;5034015;28;19909;-73
2023/09/02 00:43:33;;;;;;;;;;;;;;;;;;5036948;28;19952;-74
2023/09/02 00:45:59;;;;;;;;;;;;;;;;;;5031513;28;19947;-73
2023/09/02 00:48:25;;;;;;;;;;;;;;;;;;5030865;28;20376;-73
2023/09/02 00:50:51;;;;;;;;;;;;;;;;;;5031041;28;19916;-74
2023/09/02 00:53:18;;;;;;;;;;;;;;;;;;5031484;28;20276;-73
2023/09/02 00:55:44;;;;;;;;;;;;;;;;;;5013642;28;20331;-73
2023/09/02 00:58:10;;;;;;;;;;;;;;;;;;5030488;28;19905;-72
2023/09/02 01:00:36;;;;;;;;;;;;;;;;;;5030944;28;19916;-72
2023/09/02 01:03:02;;;;;;;;;;;;;;;;;;5031041;28;20384;-73
2023/09/02 01:05:28;;;;;;;;;;;;;;;;;;5031537;28;19912;-73
2023/09/02 01:07:54;;;;;;;;;;;;;;;;;;5030789;28;19905;-73
2023/09/02 01:10:20;;;;;;;;;;;;;;;;;;5030134;28;20265;-73
2023/09/02 01:12:45;;;;;;;;;;;;;;;;;;5031516;28;20666;-74
2023/09/02 01:15:11;;;;;;;;;;;;;;;;;;5031385;28;19912;-74
2023/09/02 01:17:37;;;;;;;;;;;;;;;;;;5030460;28;19920;-73
2023/09/02 01:20:03;;;;;;;;;;;;;;;;;;5013385;28;20289;-73
2023/09/02 01:22:29;;;;;;;;;;;;;;;;;;5031014;28;19912;-74
2023/09/02 01:24:55;;;;;;;;;;;;;;;;;;5030871;28;19959;-73
2023/09/02 01:27:21;;;;;;;;;;;;;;;;;;5031098;28;19905;-73
2023/09/02 01:29:47;;;;;;;;;;;;;;;;;;5030981;28;20334;-73
2023/09/02 01:32:13;;;;;;;;;;;;;;;;;;5030962;28;19905;-73
2023/09/02 01:34:39;;;;;;;;;;;;;;;;;;5030886;28;19943;-73
2023/09/02 01:37:04;;;;;;;;;;;;;;;;;;5030667;28;19962;-73
2023/09/02 01:39:30;;;;;;;;;;;;;;;;;;5030234;28;19905;-73
2023/09/02 01:41:56;;;;;;;;;;;;;;;;;;5030677;28;19916;-73
2023/09/02 01:44:22;;;;;;;;;;;;;;;;;;5029774;28;19939;-73
2023/09/02 01:46:48;;;;;;;;;;;;;;;;;;5013006;28;19905;-73
2023/09/02 01:49:14;;;;;;;;;;;;;;;;;;5030290;28;20423;-73
2023/09/02 01:51:40;;;;;;;;;;;;;;;;;;5030816;28;19959;-74
2023/09/02 01:54:06;;;;;;;;;;;;;;;;;;5013004;28;19991;-74
2023/09/02 01:56:32;;;;;;;;;;;;;;;;;;5013133;28;20387;-74
2023/09/02 01:58:58;;;;;;;;;;;;;;;;;;5012586;28;19905;-73
2023/09/02 02:01:24;;;;;;;;;;;;;;;;;;5013287;28;19916;-73
2023/09/02 02:03:50;;;;;;;;;;;;;;;;;;5034587;28;19940;-72
2023/09/02 02:06:16;;;;;;;;;;;;;;;;;;5034266;28;19905;-73
2023/09/02 02:08:44;;;;;;;;;;;;;;;;;;5033657;28;19955;-74
2023/09/02 02:11:10;;;;;;;;;;;;;;;;;;5034203;28;19913;-73
2023/09/02 02:13:36;;;;;;;;;;;;;;;;;;5034333;28;20377;-72
2023/09/02 02:16:02;;;;;;;;;;;;;;;;;;5018322;28;19909;-72
2023/09/02 02:18:27;;;;;;;;;;;;;;;;;;5039854;28;20368;-73
2023/09/02 02:20:53;;;;;;;;;;;;;;;;;;5033095;28;19916;-72
2023/09/02 02:23:19;;;;;;;;;;;;;;;;;;5034290;28;19905;-73
2023/09/02 02:25:45;;;;;;;;;;;;;;;;;;5034271;28;20407;-73
2023/09/02 02:28:11;;;;;;;;;;;;;;;;;;5033745;28;20000;-72
2023/09/02 02:30:37;;;;;;;;;;;;;;;;;;5034892;28;19905;-73
2023/09/02 02:33:03;;;;;;;;;;;;;;;;;;5034746;28;20364;-72
2023/09/02 02:35:29;;;;;;;;;;;;;;;;;;5034395;28;19941;-74
2023/09/02 02:37:55;;;;;;;;;;;;;;;;;;5016008;28;19905;-73
2023/09/02 02:40:22;;;;;;;;;;;;;;;;;;5034473;28;19905;-73
2023/09/02 02:42:48;;;;;;;;;;;;;;;;;;5034171;28;19916;-73
2023/09/02 02:45:14;;;;;;;;;;;;;;;;;;5033969;28;20001;-73
2023/09/02 02:47:39;;;;;;;;;;;;;;;;;;5033272;28;19909;-73
2023/09/02 02:50:05;;;;;;;;;;;;;;;;;;5042065;28;19904;-73
2023/09/02 02:52:31;;;;;;;;;;;;;;;;;;5033719;28;20369;-73
2023/09/02 02:54:57;;;;;;;;;;;;;;;;;;5032827;28;19928;-72
2023/09/02 02:57:23;;;;;;;;;;;;;;;;;;5033343;28;19905;-72
2023/09/02 02:59:49;;;;;;;;;;;;;;;;;;5033381;28;20387;-73
2023/09/02 03:02:15;;;;;;;;;;;;;;;;;;5033133;28;20008;-73
2023/09/02 03:04:46;;;;;;;;;;;;;;;;;;5033242;28;20376;-73
2023/09/02 03:07:12;;;;;;;;;;;;;;;;;;5033126;28;19909;-73
2023/09/02 03:09:38;;;;;;;;;;;;;;;;;;5032688;28;20000;-72
2023/09/02 03:12:04;;;;;;;;;;;;;;;;;;5032037;28;19905;-72
2023/09/02 03:14:30;;;;;;;;;;;;;;;;;;5047701;22;19975;-71
2023/09/02 03:16:56;;;;;;;;;;;;;;;;;;5032270;28;19905;-71
2023/09/02 03:19:22;;;;;;;;;;;;;;;;;;5033206;28;19940;-71
2023/09/02 03:21:47;;;;;;;;;;;;;;;;;;5015653;28;19909;-71
2023/09/02 03:24:13;;;;;;;;;;;;;;;;;;5033518;28;19909;-71
2023/09/02 03:26:39;;;;;;;;;;;;;;;;;;5034215;28;20487;-71
2023/09/02 03:29:05;;;;;;;;;;;;;;;;;;5036529;28;19905;-71
2023/09/02 03:31:31;;;;;;;;;;;;;;;;;;5040127;28;19917;-70
2023/09/02 03:33:57;;;;;;;;;;;;;;;;;;5041816;28;19904;-71
2023/09/02 03:36:23;;;;;;;;;;;;;;;;;;5041207;28;19959;-71
2023/09/02 03:38:49;;;;;;;;;;;;;;;;;;5039550;28;19912;-70
2023/09/02 03:41:19;;;;;;;;;;;;;;;;;;5038687;28;19966;-70
2023/09/02 03:43:45;;;;;;;;;;;;;;;;;;5033274;28;19905;-71
2023/09/02 03:46:11;;;;;;;;;;;;;;;;;;5033413;28;19905;-70
2023/09/02 03:48:37;;;;;;;;;;;;;;;;;;5032282;28;19905;-70
2023/09/02 03:51:11;;;;;;;;;;;;;;;;;;5033167;28;19913;-70
2023/09/02 03:53:37;;;;;;;;;;;;;;;;;;5032628;28;20320;-70
2023/09/02 03:56:03;;;;;;;;;;;;;;;;;;5032436;28;19905;-69
2023/09/02 03:58:29;;;;;;;;;;;;;;;;;;5031292;28;20359;-69
2023/09/02 04:00:55;;;;;;;;;;;;;;;;;;5014668;28;19913;-69
2023/09/02 04:03:21;;;;;;;;;;;;;;;;;;5032447;28;19905;-70
2023/09/02 04:05:47;;;;;;;;;;;;;;;;;;5032187;28;19905;-70
2023/09/02 04:08:13;;;;;;;;;;;;;;;;;;5031234;28;19909;-70
2023/09/02 04:10:39;;;;;;;;;;;;;;;;;;5032172;28;19995;-70
2023/09/02 04:13:05;;;;;;;;;;;;;;;;;;5014465;28;19912;-70
2023/09/02 04:15:30;;;;;;;;;;;;;;;;;;5032005;28;19920;-69
2023/09/02 04:17:56;;;;;;;;;;;;;;;;;;5031424;28;20320;-70
2023/09/02 04:20:22;;;;;;;;;;;;;;;;;;5031912;28;19943;-70
2023/09/02 04:22:48;;;;;;;;;;;;;;;;;;5032305;28;19962;-70
2023/09/02 04:25:15;;;;;;;;;;;;;;;;;;5031178;28;19988;-70
2023/09/02 04:27:41;;;;;;;;;;;;;;;;;;5031573;28;20432;-69
2023/09/02 04:30:07;;;;;;;;;;;;;;;;;;5032092;28;19905;-70
2023/09/02 04:32:32;;;;;;;;;;;;;;;;;;5014373;28;19905;-71
2023/09/02 04:34:58;;;;;;;;;;;;;;;;;;5031932;28;19912;-70
2023/09/02 04:37:24;;;;;;;;;;;;;;;;;;5031168;28;20400;-70
2023/09/02 04:39:51;;;;;;;;;;;;;;;;;;5031818;28;19951;-70
2023/09/02 04:42:17;;;;;;;;;;;;;;;;;;5031447;28;19909;-70
2023/09/02 04:44:43;;;;;;;;;;;;;;;;;;5031656;28;19913;-71
2023/09/02 04:47:10;;;;;;;;;;;;;;;;;;5031683;28;19923;-70
2023/09/02 04:49:36;;;;;;;;;;;;;;;;;;5031465;28;20249;-71
2023/09/02 04:52:03;;;;;;;;;;;;;;;;;;5031627;28;19912;-70
2023/09/02 04:54:30;;;;;;;;;;;;;;;;;;5035578;28;20372;-71
2023/09/02 04:56:56;;;;;;;;;;;;;;;;;;5049716;28;19905;-71
2023/09/02 04:59:21;;;;;;;;;;;;;;;;;;5041930;28;20472;-71
2023/09/02 05:01:47;;;;;;;;;;;;;;;;;;5043901;28;19909;-71
2023/09/02 05:04:13;;;;;;;;;;;;;;;;;;5017457;28;20732;-70
2023/09/02 05:06:39;;;;;;;;;;;;;;;;;;5031386;28;19909;-71
2023/09/02 05:09:05;;;;;;;;;;;;;;;;;;5031060;28;19931;-70
2023/09/02 05:11:31;;;;;;;;;;;;;;;;;;5030580;28;20277;-70
2023/09/02 05:13:57;;;;;;;;;;;;;;;;;;5031034;28;19905;-70
2023/09/02 05:16:23;;;;;;;;;;;;;;;;;;5031083;28;19909;-70
2023/09/02 05:18:49;;;;;;;;;;;;;;;;;;5030700;28;19959;-71
2023/09/02 05:21:17;;;;;;;;;;;;;;;;;;5031089;28;19919;-70
2023/09/02 05:23:43;;;;;;;;;;;;;;;;;;5031333;28;19905;-71
2023/09/02 05:26:09;;;;;;;;;;;;;;;;;;5030998;28;20364;-71
2023/09/02 05:28:35;;;;;;;;;;;;;;;;;;5030533;28;19916;-71
2023/09/02 05:31:01;;;;;;;;;;;;;;;;;;5031244;28;19905;-71
2023/09/02 05:33:26;;;;;;;;;;;;;;;;;;5031238;28;19905;-71
2023/09/02 05:35:52;;;;;;;;;;;;;;;;;;5032177;28;19905;-71
2023/09/02 05:38:18;;;;;;;;;;;;;;;;;;5034320;28;20291;-71
2023/09/02 05:40:44;;;;;;;;;;;;;;;;;;5043210;28;19913;-71
2023/09/02 05:43:10;;;;;;;;;;;;;;;;;;5035380;28;19925;-71
2023/09/02 05:45:36;;;;;;;;;;;;;;;;;;5034115;28;19909;-72
2023/09/02 05:48:02;;;;;;;;;;;;;;;;;;5042657;28;19923;-71
2023/09/02 05:50:28;;;;;;;;;;;;;;;;;;5035145;28;19967;-71
2023/09/02 05:52:54;;;;;;;;;;;;;;;;;;5035066;28;19909;-71
2023/09/02 05:55:20;;;;;;;;;;;;;;;;;;5034833;28;20395;-71
2023/09/02 05:57:46;;;;;;;;;;;;;;;;;;5034206;28;19908;-71
2023/09/02 06:00:11;;;;;;;;;;;;;;;;;;5034527;28;19951;-70
2023/09/02 06:02:37;;;;;;;;;;;;;;;;;;5034956;28;20533;-71
2023/09/02 06:05:03;;;;;;;;;;;;;;;;;;5016616;28;19905;-70
2023/09/02 06:07:29;;;;;;;;;;;;;;;;;;5034031;28;19912;-70
2023/09/02 06:09:55;;;;;;;;;;;;;;;;;;5034496;28;20345;-71
2023/09/02 06:12:21;;;;;;;;;;;;;;;;;;5029390;28;19916;-70
2023/09/02 06:14:47;;;;;;;;;;;;;;;;;;5028831;28;19996;-71
2023/09/02 06:17:13;;;;;;;;;;;;;;;;;;5032260;28;20334;-70
2023/09/02 06:19:39;;;;;;;;;;;;;;;;;;5032834;28;20292;-70
2023/09/02 06:22:04;;;;;;;;;;;;;;;;;;5034385;28;19997;-72
2023/09/02 06:24:30;;;;;;;;;;;;;;;;;;5034101;28;19909;-71
2023/09/02 06:27:03;;;;;;;;;;;;;;;;;;5034206;28;19912;-71
2023/09/02 06:29:31;;;;;;;;;;;;;;;;;;5034067;28;19905;-71
2023/09/02 06:31:57;;;;;;;;;;;;;;;;;;5034099;28;19996;-71
2023/09/02 06:34:23;;;;;;;;;;;;;;;;;;5016416;28;20043;-72
2023/09/02 06:36:49;;;;;;;;;;;;;;;;;;5016452;28;19909;-72
2023/09/02 06:39:14;;;;;;;;;;;;;;;;;;5042205;28;19905;-71
2023/09/02 06:41:42;;;;;;;;;;;;;;;;;;5033931;28;20292;-71
2023/09/02 06:44:08;;;;;;;;;;;;;;;;;;5016118;28;19909;-72
2023/09/02 06:46:35;;;;;;;;;;;;;;;;;;5033956;28;19909;-71
2023/09/02 06:49:05;;;;;;;;;;;;;;;;;;5032645;28;19905;-72
2023/09/02 06:51:31;;;;;;;;;;;;;;;;;;5033864;28;19912;-72
2023/09/02 06:53:57;;;;;;;;;;;;;;;;;;5032609;28;19905;-71
2023/09/02 06:56:22;;;;;;;;;;;;;;;;;;5033513;28;19909;-72
2023/09/02 06:58:48;;;;;;;;;;;;;;;;;;5032399;28;19909;-72
2023/09/02 07:01:14;;;;;;;;;;;;;;;;;;5015457;28;19913;-72
2023/09/02 07:03:40;;;;;;;;;;;;;;;;;;5033772;28;19943;-72
2023/09/02 07:06:06;;;;;;;;;;;;;;;;;;5035712;28;20004;-71
2023/09/02 07:08:32;;;;;;;;;;;;;;;;;;5032012;28;20362;-70
2023/09/02 07:10:58;;;;;;;;;;;;;;;;;;5032592;28;20015;-71
2023/09/02 07:13:24;;;;;;;;;;;;;;;;;;5033179;28;19909;-72
2023/09/02 07:15:50;;;;;;;;;;;;;;;;;;5033666;28;19913;-71
2023/09/02 07:18:16;;;;;;;;;;;;;;;;;;5032791;28;19905;-71
2023/09/02 07:20:42;;;;;;;;;;;;;;;;;;5033268;28;19939;-73
2023/09/02 07:23:08;;;;;;;;;;;;;;;;;;5035918;28;19936;-73
2023/09/02 07:25:34;;;;;;;;;;;;;;;;;;5033150;28;19916;-72
2023/09/02 07:27:59;;;;;;;;;;;;;;;;;;5032170;28;20398;-70
2023/09/02 07:30:25;;;;;;;;;;;;;;;;;;5031701;28;20407;-71
2023/09/02 07:32:51;;;;;;;;;;;;;;;;;;5040244;28;19952;-70
2023/09/02 07:35:17;;;;;;;;;;;;;;;;;;5042002;28;19912;-70
2023/09/02 07:37:43;;;;;;;;;;;;;;;;;;5039867;28;19944;-72
2023/09/02 07:40:09;;;;;;;;;;;;;;;;;;5042444;28;19905;-71
2023/09/02 07:42:35;;;;;;;;;;;;;;;;;;5031603;28;19913;-70
2023/09/02 07:45:01;;;;;;;;;;;;;;;;;;5031749;28;19905;-71
2023/09/02 07:47:27;;;;;;;;;;;;;;;;;;5030990;28;19911;-71
2023/09/02 07:49:54;;;;;;;;;;;;;;;;;;5032265;28;20007;-71
2023/09/02 07:52:20;;;;;;;;;;;;;;;;;;5032540;28;19912;-71
2023/09/02 07:54:45;;;;;;;;;;;;;;;;;;5032538;28;20343;-72
2023/09/02 07:57:11;;;;;;;;;;;;;;;;;;5032522;28;19913;-71
2023/09/02 07:59:37;;;;;;;;;;;;;;;;;;5031058;28;19905;-72
2023/09/02 08:02:03;;;;;;;;;;;;;;;;;;5032366;28;19944;-72
2023/09/02 08:04:29;;;;;;;;;;;;;;;;;;5029763;28;19991;-73
2023/09/02 08:06:55;;;;;;;;;;;;;;;;;;5032796;28;19955;-72
2023/09/02 08:09:21;;;;;;;;;;;;;;;;;;5022005;28;19912;-73
2023/09/02 08:11:47;;;;;;;;;;;;;;;;;;5032262;28;20289;-73
2023/09/02 08:14:13;;;;;;;;;;;;;;;;;;5032071;28;19905;-72
2023/09/02 08:16:38;;;;;;;;;;;;;;;;;;5032235;28;19909;-72
2023/09/02 08:19:04;;;;;;;;;;;;;;;;;;5033787;28;19959;-72
2023/09/02 08:21:30;;;;;;;;;;;;;;;;;;5043754;28;19908;-72
2023/09/02 08:23:56;;;;;;;;;;;;;;;;;;5034650;28;19912;-72
2023/09/02 08:26:22;;;;;;;;;;;;;;;;;;5031967;28;20003;-70
2023/09/02 08:28:48;;;;;;;;;;;;;;;;;;5031486;28;19905;-70
2023/09/02 08:31:15;;;;;;;;;;;;;;;;;;5021991;28;20047;-72
2023/09/02 08:33:41;;;;;;;;;;;;;;;;;;5031203;28;20058;-73
2023/09/02 08:36:07;;;;;;;;;;;;;;;;;;5031750;28;20376;-73
2023/09/02 08:38:33;;;;;;;;;;;;;;;;;;5012414;28;19992;-72
2023/09/02 08:40:59;;;;;;;;;;;;;;;;;;5032401;28;19909;-72
2023/09/02 08:43:25;;;;;;;;;;;;;;;;;;5031760;28;20372;-72
2023/09/02 08:45:51;;;;;;;;;;;;;;;;;;5031576;28;19988;-72
2023/09/02 08:48:17;;;;;;;;;;;;;;;;;;5031118;28;19948;-72
2023/09/02 08:50:43;;;;;;;;;;;;;;;;;;5031786;28;19991;-72
2023/09/02 08:53:09;;;;;;;;;;;;;;;;;;5031943;28;19912;-72
2023/09/02 08:55:35;;;;;;;;;;;;;;;;;;5031676;28;19913;-71
2023/09/02 08:58:01;;;;;;;;;;;;;;;;;;5030923;28;20351;-72
2023/09/02 09:00:27;;;;;;;;;;;;;;;;;;5031553;28;19909;-72
2023/09/02 09:02:53;;;;;;;;;;;;;;;;;;5031938;28;19935;-72
2023/09/02 09:05:18;;;;;;;;;;;;;;;;;;5034154;28;19908;-72
2023/09/02 09:07:44;;;;;;;;;;;;;;;;;;5030737;28;19905;-72
2023/09/02 09:10:10;;;;;;;;;;;;;;;;;;5031337;28;19905;-72
2023/09/02 09:12:36;;;;;;;;;;;;;;;;;;5031654;28;19905;-72
2023/09/02 09:15:02;;;;;;;;;;;;;;;;;;5040951;22;19927;-75
2023/09/02 09:17:28;;;;;;;;;;;;;;;;;;5027806;28;20386;-76
2023/09/02 09:19:54;;;;;;;;;;;;;;;;;;5028870;28;19909;-76
2023/09/02 09:22:20;;;;;;;;;;;;;;;;;;5031361;28;19920;-77
2023/09/02 09:24:46;;;;;;;;;;;;;;;;;;5031270;28;19905;-76
2023/09/02 09:27:12;;;;;;;;;;;;;;;;;;5031388;28;19913;-74
2023/09/02 09:29:38;;;;;;;;;;;;;;;;;;5010700;28;19909;-76
2023/09/02 09:32:04;;;;;;;;;;;;;;;;;;5031299;28;19967;-75
2023/09/02 09:34:29;;;;;;;;;;;;;;;;;;5031206;28;19908;-75
2023/09/02 09:36:55;;;;;;;;;;;;;;;;;;5031596;28;19905;-74
2023/09/02 09:39:21;;;;;;;;;;;;;;;;;;5013088;28;20367;-75
2023/09/02 09:41:47;;;;;;;;;;;;;;;;;;5031037;28;19909;-76
2023/09/02 09:44:13;;;;;;;;;;;;;;;;;;5030889;28;20331;-76
2023/09/02 09:46:39;;;;;;;;;;;;;;;;;;5031371;28;19909;-76
2023/09/02 09:49:05;;;;;;;;;;;;;;;;;;5013571;28;19928;-76
2023/09/02 09:51:31;;;;;;;;;;;;;;;;;;5031124;28;19912;-75
2023/09/02 09:53:57;;;;;;;;;;;;;;;;;;5031209;28;19905;-75
2023/09/02 09:56:24;;;;;;;;;;;;;;;;;;5030774;28;20392;-76
2023/09/02 09:58:50;;;;;;;;;;;;;;;;;;5030498;28;20372;-73
2023/09/02 10:01:15;;;;;;;;;;;;;;;;;;5031390;28;19916;-73
2023/09/02 10:03:41;;;;;;;;;;;;;;;;;;5013368;28;19905;-73
2023/09/02 10:06:07;;;;;;;;;;;;;;;;;;5013022;28;19943;-74
2023/09/02 10:08:33;;;;;;;;;;;;;;;;;;5030199;28;20012;-75
2023/09/02 10:10:59;;;;;;;;;;;;;;;;;;5031275;28;20021;-74
2023/09/02 10:13:25;;;;;;;;;;;;;;;;;;5030888;28;20367;-74
2023/09/02 10:15:51;;;;;;;;;;;;;;;;;;5030574;28;19913;-74
2023/09/02 10:18:17;;;;;;;;;;;;;;;;;;5030270;28;20332;-73
2023/09/02 10:20:43;;;;;;;;;;;;;;;;;;5030645;28;19971;-73
2023/09/02 10:23:09;;;;;;;;;;;;;;;;;;5032590;28;19970;-74
2023/09/02 10:25:35;;;;;;;;;;;;;;;;;;5034222;28;19935;-74
2023/09/02 10:28:01;;;;;;;;;;;;;;;;;;5033569;28;19905;-74
2023/09/02 10:30:27;;;;;;;;;;;;;;;;;;5034373;28;20011;-75
2023/09/02 10:32:52;;;;;;;;;;;;;;;;;;5034765;28;19995;-74
2023/09/02 10:35:19;;;;;;;;;;;;;;;;;;5034491;28;20345;-75
2023/09/02 10:37:45;;;;;;;;;;;;;;;;;;5033714;28;20296;-75
2023/09/02 10:40:13;;;;;;;;;;;;;;;;;;5033850;28;20331;-74
2023/09/02 10:42:39;;;;;;;;;;;;;;;;;;5016170;28;19995;-74
2023/09/02 10:45:05;;;;;;;;;;;;;;;;;;5034484;28;20004;-75
2023/09/02 10:47:31;;;;;;;;;;;;;;;;;;5033529;28;20279;-75
2023/09/02 10:49:57;;;;;;;;;;;;;;;;;;5034222;28;19912;-74
2023/09/02 10:52:23;;;;;;;;;;;;;;;;;;5033882;28;19905;-75
2023/09/02 10:54:49;;;;;;;;;;;;;;;;;;5033931;28;19915;-75
2023/09/02 10:57:14;;;;;;;;;;;;;;;;;;5033989;28;19995;-75
2023/09/02 10:59:40;;;;;;;;;;;;;;;;;;5033529;28;19958;-75
2023/09/02 11:02:06;;;;;;;;;;;;;;;;;;5034194;28;19909;-74
2023/09/02 11:04:32;;;;;;;;;;;;;;;;;;5033856;28;20399;-75
2023/09/02 11:06:58;;;;;;;;;;;;;;;;;;5034195;28;19906;-75
2023/09/02 11:09:24;;;;;;;;;;;;;;;;;;5033400;28;19909;-74
2023/09/02 11:11:50;;;;;;;;;;;;;;;;;;5034966;28;19940;-75
2023/09/02 11:14:16;;;;;;;;;;;;;;;;;;5032461;28;19905;-78
2023/09/02 11:16:42;;;;;;;;;;;;;;;;;;5032946;28;20398;-75
2023/09/02 11:19:08;;;;;;;;;;;;;;;;;;5032788;28;19999;-77
2023/09/02 11:21:34;;;;;;;;;;;;;;;;;;5032707;28;19996;-78
2023/09/02 11:24:00;;;;;;;;;;;;;;;;;;5032954;28;19940;-76
2023/09/02 11:26:26;;;;;;;;;;;;;;;;;;5032419;28;20459;-77
2023/09/02 11:28:52;;;;;;;;;;;;;;;;;;5032672;28;19905;-78
2023/09/02 11:31:18;;;;;;;;;;;;;;;;;;5028161;28;20322;-77
2023/09/02 11:33:44;;;;;;;;;;;;;;;;;;5026474;28;19904;-77
2023/09/02 11:36:10;;;;;;;;;;;;;;;;;;5041503;28;19927;-78
2023/09/02 11:38:36;;;;;;;;;;;;;;;;;;5031556;28;20000;-79
2023/09/02 11:41:02;;;;;;;;;;;;;;;;;;5032775;28;19908;-77
2023/09/02 11:43:27;;;;;;;;;;;;;;;;;;5032314;28;19905;-78
2023/09/02 11:45:53;;;;;;;;;;;;;;;;;;5032259;28;19909;-77
2023/09/02 11:48:19;;;;;;;;;;;;;;;;;;5031346;28;19932;-75
2023/09/02 11:50:45;;;;;;;;;;;;;;;;;;5040365;28;19905;-76
2023/09/02 11:53:11;;;;;;;;;;;;;;;;;;5014655;28;19943;-76
2023/09/02 11:55:39;;;;;;;;;;;;;;;;;;5032218;28;20356;-77
2023/09/02 11:58:04;;;;;;;;;;;;;;;;;;5014079;28;20368;-77
2023/09/02 12:00:30;;;;;;;;;;;;;;;;;;5032412;28;19916;-79
2023/09/02 12:02:59;;;;;;;;;;;;;;;;;;5032427;28;19916;-76
2023/09/02 12:05:25;;;;;;;;;;;;;;;;;;5032281;28;19927;-77
2023/09/02 12:07:51;;;;;;;;;;;;;;;;;;5031268;28;19936;-75
2023/09/02 12:10:17;;;;;;;;;;;;;;;;;;5031986;28;19966;-77
2023/09/02 12:12:43;;;;;;;;;;;;;;;;;;5031778;28;19928;-79
2023/09/02 12:15:09;;;;;;;;;;;;;;;;;;5032392;28;19951;-77
2023/09/02 12:17:35;;;;;;;;;;;;;;;;;;5031080;28;20391;-77
2023/09/02 12:20:01;;;;;;;;;;;;;;;;;;5031480;28;19905;-76
2023/09/02 12:22:27;;;;;;;;;;;;;;;;;;5031118;28;19919;-76
2023/09/02 12:24:53;;;;;;;;;;;;;;;;;;5031934;28;19991;-77
2023/09/02 12:27:19;;;;;;;;;;;;;;;;;;5031572;28;20400;-77
2023/09/02 12:29:45;;;;;;;;;;;;;;;;;;5031236;28;20319;-78
2023/09/02 12:32:10;;;;;;;;;;;;;;;;;;5030934;28;20364;-77
2023/09/02 12:34:36;;;;;;;;;;;;;;;;;;5031379;28;19959;-78
2023/09/02 12:37:02;;;;;;;;;;;;;;;;;;5031767;28;19909;-76
2023/09/02 12:39:28;;;;;;;;;;;;;;;;;;5005848;28;20349;-72
2023/09/02 12:41:55;;;;;;;;;;;;;;;;;;5031094;28;19917;-72
2023/09/02 12:44:22;;;;;;;;;;;;;;;;;;5031175;28;19905;-72
2023/09/02 12:46:48;;;;;;;;;;;;;;;;;;5030511;28;19974;-74
2023/09/02 12:49:14;;;;;;;;;;;;;;;;;;5031080;28;20268;-76
2023/09/02 12:51:40;;;;;;;;;;;;;;;;;;5031282;28;19905;-76
2023/09/02 12:54:06;;;;;;;;;;;;;;;;;;5013401;28;19927;-76
2023/09/02 12:56:32;;;;;;;;;;;;;;;;;;5036227;28;19908;-76
2023/09/02 12:58:58;;;;;;;;;;;;;;;;;;5015151;28;19905;-75
2023/09/02 13:01:24;;;;;;;;;;;;;;;;;;5031256;28;19909;-76
2023/09/02 13:03:49;;;;;;;;;;;;;;;;;;5031016;28;19905;-75
2023/09/02 13:06:15;;;;;;;;;;;;;;;;;;5012725;28;19943;-75
2023/09/02 13:08:41;;;;;;;;;;;;;;;;;;5030342;28;20341;-75
2023/09/02 13:11:07;;;;;;;;;;;;;;;;;;5015687;28;20000;-76
2023/09/02 13:13:33;;;;;;;;;;;;;;;;;;5037127;28;20388;-75
2023/09/02 13:15:59;;;;;;;;;;;;;;;;;;5030583;28;19924;-76
2023/09/02 13:18:25;;;;;;;;;;;;;;;;;;5030157;28;19905;-76
2023/09/02 13:20:51;;;;;;;;;;;;;;;;;;5031127;28;20346;-75
2023/09/02 13:23:17;;;;;;;;;;;;;;;;;;5030916;28;19909;-78
2023/09/02 13:25:43;;;;;;;;;;;;;;;;;;5031406;28;19939;-77
2023/09/02 13:28:09;;;;;;;;;;;;;;;;;;5030272;28;20004;-75
2023/09/02 13:30:35;;;;;;;;;;;;;;;;;;5030706;28;19913;-75
2023/09/02 13:33:01;;;;;;;;;;;;;;;;;;5031333;28;20648;-75
2023/09/02 13:35:27;;;;;;;;;;;;;;;;;;5013358;28;19905;-75
2023/09/02 13:37:53;;;;;;;;;;;;;;;;;;5030228;28;19905;-73
2023/09/02 13:40:18;;;;;;;;;;;;;;;;;;5039058;28;20408;-73
2023/09/02 13:42:44;;;;;;;;;;;;;;;;;;5029902;28;19913;-73
2023/09/02 13:45:10;;;;;;;;;;;;;;;;;;5031202;28;19905;-73
2023/09/02 13:47:36;;;;;;;;;;;;;;;;;;5029981;28;19911;-71
2023/09/02 13:50:02;;;;;;;;;;;;;;;;;;5030481;28;19909;-72
2023/09/02 13:52:28;;;;;;;;;;;;;;;;;;5030577;28;19909;-72
2023/09/02 13:54:54;;;;;;;;;;;;;;;;;;5031358;28;19905;-73
2023/09/02 13:57:20;;;;;;;;;;;;;;;;;;5013958;28;20269;-74
2023/09/02 13:59:46;;;;;;;;;;;;;;;;;;5034362;28;19905;-74
2023/09/02 14:02:12;;;;;;;;;;;;;;;;;;5016271;28;20543;-74
2023/09/02 14:04:37;;;;;;;;;;;;;;;;;;5033998;28;19916;-73
2023/09/02 14:07:03;;;;;;;;;;;;;;;;;;5034669;28;19971;-74
2023/09/02 14:09:29;;;;;;;;;;;;;;;;;;5034025;28;19948;-74
2023/09/02 14:11:55;;;;;;;;;;;;;;;;;;5034581;28;20000;-73
2023/09/02 14:14:22;;;;;;;;;;;;;;;;;;5034231;28;19979;-75
2023/09/02 14:16:48;;;;;;;;;;;;;;;;;;5033719;28;19960;-79
2023/09/02 14:19:14;;;;;;;;;;;;;;;;;;5033951;28;19905;-75
2023/09/02 14:21:40;;;;;;;;;;;;;;;;;;5034327;28;19963;-75
2023/09/02 14:24:06;;;;;;;;;;;;;;;;;;5016119;28;20503;-75
2023/09/02 14:26:32;;;;;;;;;;;;;;;;;;5033702;28;19947;-74
2023/09/02 14:28:58;;;;;;;;;;;;;;;;;;5034048;28;19905;-75
2023/09/02 14:31:24;;;;;;;;;;;;;;;;;;5033797;28;19958;-75
2023/09/02 14:33:50;;;;;;;;;;;;;;;;;;5033916;28;19909;-74
2023/09/02 14:36:16;;;;;;;;;;;;;;;;;;5034198;28;19905;-76
2023/09/02 14:38:42;;;;;;;;;;;;;;;;;;5015456;28;19912;-74
2023/09/02 14:41:08;;;;;;;;;;;;;;;;;;5017167;28;21190;-75
2023/09/02 14:43:33;;;;;;;;;;;;;;;;;;5016139;28;19992;-73
2023/09/02 14:45:59;;;;;;;;;;;;;;;;;;5034060;28;19911;-75
2023/09/02 14:48:25;;;;;;;;;;;;;;;;;;5015739;28;20421;-77
2023/09/02 14:50:51;;;;;;;;;;;;;;;;;;5034913;28;19908;-75
2023/09/02 14:53:17;;;;;;;;;;;;;;;;;;5015911;28;19905;-76
2023/09/02 14:55:43;;;;;;;;;;;;;;;;;;5033674;28;20013;-76
2023/09/02 14:58:09;;;;;;;;;;;;;;;;;;5015190;28;20309;-76
2023/09/02 15:00:35;;;;;;;;;;;;;;;;;;5033302;28;19913;-74
2023/09/02 15:03:01;;;;;;;;;;;;;;;;;;5033503;28;19920;-75
2023/09/02 15:05:27;;;;;;;;;;;;;;;;;;5031195;28;19905;-74
2023/09/02 15:07:57;;;;;;;;;;;;;;;;;;5018242;28;19952;-74
2023/09/02 15:10:23;;;;;;;;;;;;;;;;;;5018048;28;19992;-74
2023/09/02 15:12:49;;;;;;;;;;;;;;;;;;5024289;28;20047;-74
2023/09/02 15:15:15;;;;;;;;;;;;;;;;;;5031365;28;19917;-74
2023/09/02 15:17:41;;;;;;;;;;;;;;;;;;5086890;22;19924;-77
2023/09/02 15:20:07;;;;;;;;;;;;;;;;;;5067323;28;20012;-78
2023/09/02 15:22:32;;;;;;;;;;;;;;;;;;5092451;28;19927;-78
2023/09/02 15:24:58;;;;;;;;;;;;;;;;;;5077406;28;19915;-78
2023/09/02 15:27:25;;;;;;;;;;;;;;;;;;5064705;28;20395;-77
2023/09/02 15:29:51;;;;;;;;;;;;;;;;;;5025667;28;19909;-77
2023/09/02 15:32:17;;;;;;;;;;;;;;;;;;5056384;28;20316;-77
2023/09/02 15:34:43;;;;;;;;;;;;;;;;;;5057951;28;19908;-77
2023/09/02 15:37:09;;;;;;;;;;;;;;;;;;5061783;28;19916;-77
2023/09/02 15:39:35;;;;;;;;;;;;;;;;;;5056453;28;19915;-77
2023/09/02 15:42:01;;;;;;;;;;;;;;;;;;5056576;28;19909;-77
2023/09/02 15:44:29;;;;;;;;;;;;;;;;;;5056127;28;20392;-77
2023/09/02 15:46:55;;;;;;;;;;;;;;;;;;5054657;28;19904;-77
2023/09/02 15:49:21;;;;;;;;;;;;;;;;;;5053066;28;19905;-78
2023/09/02 15:51:46;;;;;;;;;;;;;;;;;;5053892;28;19905;-78
2023/09/02 15:54:13;;;;;;;;;;;;;;;;;;5054086;28;20250;-78
2023/09/02 15:56:41;;;;;;;;;;;;;;;;;;5054517;28;19909;-77
2023/09/02 15:59:07;;;;;;;;;;;;;;;;;;5055861;28;20000;-77
2023/09/02 16:01:33;;;;;;;;;;;;;;;;;;5066134;28;20008;-78
2023/09/02 16:04:01;;;;;;;;;;;;;;;;;;5054224;28;20347;-77
2023/09/02 16:06:27;;;;;;;;;;;;;;;;;;5035616;28;19947;-77
2023/09/02 16:08:53;;;;;;;;;;;;;;;;;;5035890;28;19948;-77
2023/09/02 16:11:19;;;;;;;;;;;;;;;;;;5069320;28;20394;-77
2023/09/02 16:13:45;;;;;;;;;;;;;;;;;;5068373;28;20016;-76
2023/09/02 16:16:11;;;;;;;;;;;;;;;;;;5056628;28;19927;-77
2023/09/02 16:18:37;;;;;;;;;;;;;;;;;;5066588;28;19904;-77
2023/09/02 16:21:03;;;;;;;;;;;;;;;;;;5060502;28;20364;-76
2023/09/02 16:23:29;;;;;;;;;;;;;;;;;;5065468;28;20291;-77
2023/09/02 16:25:55;;;;;;;;;;;;;;;;;;5064541;28;19911;-77
2023/09/02 16:28:21;;;;;;;;;;;;;;;;;;5046998;28;20275;-77
2023/09/02 16:30:47;;;;;;;;;;;;;;;;;;5046945;28;19904;-76
2023/09/02 16:33:30;;;;;;;;;;;;;;;;;;5053754;28;19952;-77
2023/09/02 16:35:58;;;;;;;;;;;;;;;;;;5034572;28;19912;-76
2023/09/02 16:38:24;;;;;;;;;;;;;;;;;;5068667;28;19905;-77